createdAt,value
2018-10-06T00:02:05.447Z,8.65
2018-10-06T00:04:34.364Z,7.83
2018-10-06T00:07:03.295Z,8.20
2018-10-06T00:09:32.252Z,8.95
2018-10-06T00:12:01.140Z,8.48
2018-10-06T00:14:30.104Z,8.68
2018-10-06T00:16:59.023Z,8.80
2018-10-06T00:19:27.990Z,8.33
2018-10-06T00:21:56.916Z,8.70
2018-10-06T00:24:25.812Z,8.03
2018-10-06T00:26:55.438Z,8.00
2018-10-06T00:29:24.361Z,7.65
2018-10-06T00:31:53.261Z,8.18
2018-10-06T00:34:22.355Z,8.78
2018-10-06T00:36:51.249Z,8.43
2018-10-06T00:39:20.217Z,9.23
2018-10-06T00:41:49.296Z,9.00
2018-10-06T00:44:18.207Z,8.88
2018-10-06T00:46:47.539Z,8.78
2018-10-06T00:49:16.457Z,8.48
2018-10-06T00:51:45.389Z,8.68
2018-10-06T00:54:14.309Z,9.13
2018-10-06T00:56:43.258Z,8.95
2018-10-06T00:59:12.191Z,8.10
2018-10-06T01:01:41.085Z,9.03
2018-10-06T01:04:10.122Z,8.78
2018-10-06T01:06:39.047Z,9.13
2018-10-06T01:09:09.083Z,8.48
2018-10-06T01:11:38.022Z,8.40
2018-10-06T01:14:06.916Z,9.28
2018-10-06T01:16:36.114Z,8.55
2018-10-06T01:19:05.629Z,8.53
2018-10-06T01:21:34.579Z,8.98
2018-10-06T01:24:03.519Z,8.95
2018-10-06T01:26:32.400Z,8.53
2018-10-06T01:29:01.347Z,8.78
2018-10-06T01:31:30.249Z,9.20
2018-10-06T01:33:59.159Z,8.23
2018-10-06T01:36:28.077Z,8.13
2018-10-06T01:38:57.006Z,8.65
2018-10-06T01:41:25.948Z,8.13
2018-10-06T01:43:54.877Z,7.78
2018-10-06T01:46:23.798Z,7.67
2018-10-06T01:48:52.723Z,8.23
2018-10-06T01:51:21.608Z,7.90
2018-10-06T01:53:50.532Z,7.15
2018-10-06T01:56:19.445Z,7.65
2018-10-06T01:58:48.347Z,8.08
2018-10-06T02:01:17.261Z,7.97
2018-10-06T02:03:46.194Z,7.40
2018-10-06T02:06:15.121Z,7.05
2018-10-06T02:08:44.019Z,7.33
2018-10-06T02:11:13.133Z,7.28
2018-10-06T02:13:42.042Z,6.65
2018-10-06T02:16:10.989Z,7.37
2018-10-06T02:18:39.890Z,7.53
2018-10-06T02:21:08.859Z,6.85
2018-10-06T02:23:37.782Z,6.92
2018-10-06T02:26:06.900Z,7.85
2018-10-06T02:28:35.797Z,6.92
2018-10-06T02:31:04.694Z,7.05
2018-10-06T02:33:33.610Z,7.70
2018-10-06T02:36:02.580Z,7.95
2018-10-06T02:38:31.494Z,8.45
2018-10-06T02:41:00.399Z,7.85
2018-10-06T02:43:29.297Z,7.50
2018-10-06T02:45:58.665Z,8.05
2018-10-06T02:48:27.655Z,7.55
2018-10-06T02:50:56.583Z,7.30
2018-10-06T02:53:25.490Z,7.28
2018-10-06T02:55:54.426Z,7.03
2018-10-06T02:58:23.334Z,7.70
2018-10-06T03:00:52.290Z,7.28
2018-10-06T03:03:21.242Z,7.15
2018-10-06T03:05:50.161Z,6.78
2018-10-06T03:08:19.072Z,7.08
2018-10-06T03:10:47.977Z,7.35
2018-10-06T03:13:16.881Z,7.83
2018-10-06T03:15:45.813Z,7.50
2018-10-06T03:18:14.753Z,7.80
2018-10-06T03:20:43.649Z,7.95
2018-10-06T03:23:12.562Z,7.37
2018-10-06T03:25:41.481Z,8.00
2018-10-06T03:28:10.401Z,7.00
2018-10-06T03:30:39.334Z,7.87
2018-10-06T03:33:08.234Z,7.67
2018-10-06T03:35:37.159Z,7.53
2018-10-06T03:38:06.120Z,7.47
2018-10-06T03:40:35.047Z,7.58
2018-10-06T03:43:03.947Z,7.53
2018-10-06T03:45:32.880Z,7.72
2018-10-06T03:48:01.807Z,7.08
2018-10-06T03:50:30.701Z,7.87
2018-10-06T03:52:59.629Z,7.67
2018-10-06T03:55:28.533Z,7.30
2018-10-06T03:57:57.511Z,7.37
2018-10-06T04:00:26.463Z,7.90
2018-10-06T04:02:55.377Z,8.78
2018-10-06T04:05:24.296Z,8.28
2018-10-06T04:07:53.241Z,7.95
2018-10-06T04:10:22.152Z,7.75
2018-10-06T04:12:51.084Z,8.13
2018-10-06T04:15:20.034Z,8.10
2018-10-06T04:17:48.966Z,7.83
2018-10-06T04:20:17.864Z,7.65
2018-10-06T04:22:46.814Z,7.58
2018-10-06T04:25:15.724Z,7.35
2018-10-06T04:27:44.625Z,7.62
2018-10-06T04:30:13.576Z,7.67
2018-10-06T04:32:42.474Z,7.30
2018-10-06T04:35:11.391Z,7.90
2018-10-06T04:37:40.321Z,7.40
2018-10-06T04:40:09.248Z,7.67
2018-10-06T04:42:38.166Z,7.55
2018-10-06T04:45:07.410Z,7.60
2018-10-06T04:47:36.308Z,7.97
2018-10-06T04:50:05.354Z,6.70
2018-10-06T04:52:34.291Z,7.85
2018-10-06T04:55:03.256Z,7.53
2018-10-06T04:57:32.161Z,7.85
2018-10-06T05:00:01.075Z,8.90
2018-10-06T05:02:29.998Z,7.78
2018-10-06T05:04:58.895Z,8.48
2018-10-06T05:07:27.789Z,7.40
2018-10-06T05:09:56.773Z,7.85
2018-10-06T05:12:25.664Z,7.92
2018-10-06T05:14:54.587Z,8.23
2018-10-06T05:17:23.517Z,7.87
2018-10-06T05:19:52.413Z,7.85
2018-10-06T05:22:21.335Z,8.10
2018-10-06T05:24:50.247Z,8.53
2018-10-06T05:27:19.169Z,8.68
2018-10-06T05:29:48.089Z,8.28
2018-10-06T05:32:16.997Z,7.90
2018-10-06T05:34:46.027Z,7.85
2018-10-06T05:37:14.919Z,8.38
2018-10-06T05:39:43.841Z,7.95
2018-10-06T05:42:12.767Z,8.35
2018-10-06T05:44:41.709Z,8.40
2018-10-06T05:47:10.674Z,8.18
2018-10-06T05:49:39.582Z,8.53
2018-10-06T05:52:08.513Z,8.60
2018-10-06T05:54:37.461Z,8.20
2018-10-06T05:57:06.719Z,8.38
2018-10-06T05:59:35.657Z,7.95
2018-10-06T06:02:04.680Z,8.55
2018-10-06T06:04:33.615Z,8.38
2018-10-06T06:07:02.583Z,8.78
2018-10-06T06:09:31.541Z,8.45
2018-10-06T06:12:00.464Z,8.48
2018-10-06T06:14:29.426Z,8.45
2018-10-06T06:16:58.314Z,8.80
2018-10-06T06:19:27.226Z,8.58
2018-10-06T06:21:56.133Z,8.85
2018-10-06T06:24:25.080Z,9.25
2018-10-06T06:26:54.684Z,9.05
2018-10-06T06:29:23.594Z,8.83
2018-10-06T06:31:52.472Z,8.93
2018-10-06T06:34:21.460Z,8.88
2018-10-06T06:36:50.352Z,8.80
2018-10-06T06:39:19.324Z,8.65
2018-10-06T06:41:48.222Z,9.13
2018-10-06T06:44:17.252Z,8.98
2018-10-06T06:46:46.306Z,8.30
2018-10-06T06:49:15.231Z,9.48
2018-10-06T06:51:44.134Z,8.93
2018-10-06T06:54:13.118Z,9.13
2018-10-06T06:56:42.106Z,8.83
2018-10-06T06:59:11.130Z,9.80
2018-10-06T07:01:40.062Z,9.10
2018-10-06T07:04:09.021Z,9.03
2018-10-06T07:06:38.041Z,10.43
2018-10-06T07:09:07.896Z,9.00
2018-10-06T07:11:36.863Z,8.98
2018-10-06T07:14:06.155Z,8.48
2018-10-06T07:16:35.092Z,9.43
2018-10-06T07:19:04.049Z,9.83
2018-10-06T07:21:32.979Z,9.88
2018-10-06T07:24:01.961Z,10.00
2018-10-06T07:26:30.893Z,11.85
2018-10-06T07:28:59.838Z,9.98
2018-10-06T07:31:28.764Z,10.50
2018-10-06T07:33:57.687Z,9.38
2018-10-06T07:36:26.626Z,9.15
2018-10-06T07:38:55.521Z,9.00
2018-10-06T07:41:24.456Z,8.93
2018-10-06T07:43:53.554Z,8.48
2018-10-06T07:46:22.702Z,9.43
2018-10-06T07:48:51.752Z,9.83
2018-10-06T07:51:20.702Z,8.53
2018-10-06T07:53:49.618Z,9.28
2018-10-06T07:56:18.592Z,9.88
2018-10-06T07:58:47.544Z,9.00
2018-10-06T08:01:16.672Z,9.20
2018-10-06T08:03:45.616Z,9.50
2018-10-06T08:06:14.946Z,8.88
2018-10-06T08:08:44.058Z,8.60
2018-10-06T08:11:13.075Z,9.95
2018-10-06T08:13:42.005Z,9.28
2018-10-06T08:16:10.940Z,9.30
2018-10-06T08:18:40.022Z,10.53
2018-10-06T08:21:09.007Z,9.75
2018-10-06T08:23:37.961Z,9.50
2018-10-06T08:26:07.046Z,9.23
2018-10-06T08:28:35.990Z,9.28
2018-10-06T08:31:04.930Z,9.95
2018-10-06T08:33:33.861Z,9.20
2018-10-06T08:36:02.831Z,9.25
2018-10-06T08:38:31.774Z,9.90
2018-10-06T08:41:00.742Z,9.93
2018-10-06T08:43:29.684Z,9.18
2018-10-06T08:45:58.629Z,9.70
2018-10-06T08:48:27.560Z,10.00
2018-10-06T08:50:56.476Z,9.48
2018-10-06T08:53:25.418Z,9.55
2018-10-06T08:55:54.408Z,9.60
2018-10-06T08:58:23.601Z,8.83
2018-10-06T09:00:52.532Z,10.13
2018-10-06T09:03:21.494Z,10.03
2018-10-06T09:05:50.451Z,9.80
2018-10-06T09:08:19.367Z,9.65
2018-10-06T09:10:48.309Z,9.55
2018-10-06T09:13:17.436Z,9.63
2018-10-06T09:15:46.361Z,9.80
2018-10-06T09:18:15.317Z,10.35
2018-10-06T09:20:44.271Z,9.90
2018-10-06T09:23:13.250Z,10.08
2018-10-06T09:25:42.194Z,9.98
2018-10-06T09:28:11.302Z,9.75
2018-10-06T09:30:40.432Z,9.40
2018-10-06T09:33:09.522Z,9.75
2018-10-06T09:35:38.577Z,10.08
2018-10-06T09:38:07.538Z,10.93
2018-10-06T09:40:36.533Z,10.58
2018-10-06T09:43:05.510Z,10.55
2018-10-06T09:45:34.499Z,10.85
2018-10-06T09:48:03.523Z,11.15
2018-10-06T09:50:32.669Z,10.82
2018-10-06T09:53:01.651Z,10.65
2018-10-06T09:55:30.682Z,11.48
2018-10-06T09:57:59.645Z,11.08
2018-10-06T10:00:33.825Z,10.80
2018-10-06T10:03:07.889Z,10.35
2018-10-06T10:05:42.191Z,9.73
2018-10-06T10:08:11.384Z,9.90
2018-10-06T10:10:40.518Z,9.78
2018-10-06T10:13:09.826Z,10.48
2018-10-06T10:15:38.782Z,10.20
2018-10-06T10:18:07.806Z,9.85
2018-10-06T10:20:36.864Z,10.18
2018-10-06T10:23:06.058Z,9.48
2018-10-06T10:25:35.218Z,8.80
2018-10-06T10:28:04.706Z,8.53
2018-10-06T10:30:33.680Z,8.48
2018-10-06T10:33:02.612Z,9.13
2018-10-06T10:35:31.585Z,9.70
2018-10-06T10:38:00.513Z,8.43
2018-10-06T10:40:29.451Z,8.38
2018-10-06T10:42:58.410Z,8.43
2018-10-06T10:45:27.352Z,8.88
2018-10-06T10:47:56.294Z,8.70
2018-10-06T10:50:25.259Z,8.28
2018-10-06T10:52:54.247Z,8.33
2018-10-06T10:55:23.218Z,8.18
2018-10-06T10:57:52.382Z,7.90
2018-10-06T11:00:21.486Z,7.90
2018-10-06T11:02:50.653Z,7.80
2018-10-06T11:05:19.631Z,7.65
2018-10-06T11:07:48.545Z,7.22
2018-10-06T11:10:17.541Z,7.75
2018-10-06T11:12:46.454Z,7.35
2018-10-06T11:15:15.407Z,7.50
2018-10-06T11:17:44.373Z,6.85
2018-10-06T11:20:13.401Z,7.28
2018-10-06T11:22:42.306Z,6.75
2018-10-06T11:25:11.269Z,6.45
2018-10-06T11:27:40.275Z,6.13
2018-10-06T11:30:09.603Z,6.25
2018-10-06T11:32:38.534Z,6.30
2018-10-06T11:35:07.831Z,6.40
2018-10-06T11:37:36.819Z,6.45
2018-10-06T11:40:06.099Z,6.53
2018-10-06T11:42:35.035Z,6.30
2018-10-06T11:45:04.017Z,5.58
2018-10-06T11:47:32.666Z,6.17
2018-10-06T11:50:01.607Z,5.80
2018-10-06T11:52:30.662Z,6.58
2018-10-06T11:54:59.574Z,5.60
2018-10-06T11:57:28.505Z,5.83
2018-10-06T11:59:57.272Z,5.00
2018-10-06T12:02:26.063Z,5.17
2018-10-06T12:04:54.737Z,5.40
2018-10-06T12:07:23.868Z,6.00
2018-10-06T12:09:52.923Z,5.50
2018-10-06T12:12:21.542Z,5.47
2018-10-06T12:14:50.270Z,5.40
2018-10-06T12:17:18.926Z,5.20
2018-10-06T12:19:47.578Z,5.33
2018-10-06T12:22:16.211Z,4.87
2018-10-06T12:24:44.920Z,5.00
2018-10-06T12:27:13.548Z,5.07
2018-10-06T12:29:42.497Z,5.50
2018-10-06T12:32:11.146Z,5.53
2018-10-06T12:34:39.838Z,5.53
2018-10-06T12:37:08.596Z,5.90
2018-10-06T12:42:12.111Z,5.30
2018-10-06T12:44:40.906Z,5.40
2018-10-06T12:47:09.717Z,5.00
2018-10-06T12:49:38.521Z,5.20
2018-10-06T12:52:07.477Z,5.27
2018-10-06T12:54:36.129Z,5.93
2018-10-06T12:57:05.383Z,5.17
2018-10-06T12:59:34.063Z,5.40
2018-10-06T13:02:02.736Z,5.47
2018-10-06T13:04:31.496Z,6.07
2018-10-06T13:07:00.634Z,5.80
2018-10-06T13:09:29.236Z,5.60
2018-10-06T13:11:57.961Z,7.67
2018-10-06T13:14:26.769Z,5.87
2018-10-06T13:16:55.426Z,5.27
2018-10-06T13:19:24.108Z,5.10
2018-10-06T13:21:52.951Z,5.30
2018-10-06T13:24:21.633Z,5.83
2018-10-06T13:26:50.283Z,5.40
2018-10-06T13:29:18.952Z,6.60
2018-10-06T13:31:47.749Z,4.97
2018-10-06T13:34:16.545Z,5.70
2018-10-06T13:36:45.229Z,5.43
2018-10-06T13:39:13.884Z,4.70
2018-10-06T13:41:42.500Z,4.50
2018-10-06T13:44:11.513Z,5.20
2018-10-06T13:46:40.183Z,4.93
2018-10-06T13:49:09.007Z,4.40
2018-10-06T13:51:37.677Z,4.30
2018-10-06T13:54:06.349Z,4.30
2018-10-06T13:56:35.526Z,4.67
2018-10-06T13:59:04.308Z,4.97
2018-10-06T14:01:33.004Z,4.53
2018-10-06T14:04:01.684Z,4.30
2018-10-06T14:06:30.318Z,4.57
2018-10-06T14:08:58.992Z,4.93
2018-10-06T14:11:27.615Z,4.73
2018-10-06T14:13:56.266Z,4.23
2018-10-06T14:16:24.949Z,4.77
2018-10-06T14:18:53.906Z,4.47
2018-10-06T14:21:22.621Z,4.03
2018-10-06T14:23:51.291Z,3.87
2018-10-06T14:26:19.933Z,3.53
2018-10-06T14:28:48.749Z,4.53
2018-10-06T14:31:17.393Z,4.13
2018-10-06T14:33:46.024Z,3.80
2018-10-06T14:36:14.704Z,3.70
2018-10-06T14:38:43.316Z,3.70
2018-10-06T14:41:11.994Z,4.37
2018-10-06T14:43:40.624Z,3.63
2018-10-06T14:46:09.234Z,3.13
2018-10-06T14:48:37.857Z,3.33
2018-10-06T14:51:06.537Z,3.10
2018-10-06T14:53:35.160Z,3.33
2018-10-06T14:56:03.845Z,3.80
2018-10-06T14:58:32.494Z,3.77
2018-10-06T15:01:01.117Z,3.97
2018-10-06T15:03:29.725Z,3.10
2018-10-06T15:05:58.545Z,3.33
2018-10-06T15:08:27.168Z,4.10
2018-10-06T15:10:55.840Z,3.60
2018-10-06T15:13:31.174Z,3.60
2018-10-06T15:15:59.918Z,3.70
2018-10-06T15:18:28.729Z,3.80
2018-10-06T15:20:57.384Z,3.80
2018-10-06T15:23:26.001Z,4.07
2018-10-06T15:25:54.721Z,3.90
2018-10-06T15:28:23.409Z,4.30
2018-10-06T15:30:52.055Z,4.50
2018-10-06T15:33:20.688Z,4.30
2018-10-06T15:35:49.340Z,5.00
2018-10-06T15:38:18.065Z,6.87
2018-10-06T15:40:46.908Z,7.60
2018-10-06T15:43:15.547Z,6.57
2018-10-06T15:45:44.228Z,5.87
2018-10-06T15:48:12.890Z,5.93
2018-10-06T15:50:41.535Z,6.53
2018-10-06T15:53:10.162Z,6.60
2018-10-06T15:55:38.825Z,6.67
2018-10-06T15:58:07.534Z,7.23
2018-10-06T16:00:36.190Z,7.03
2018-10-06T16:03:05.141Z,7.17
2018-10-06T16:05:34.105Z,7.73
2018-10-06T16:08:03.078Z,10.03
2018-10-06T16:10:32.054Z,8.53
2018-10-06T16:13:00.698Z,7.03
2018-10-06T16:15:29.650Z,7.20
2018-10-06T16:17:58.788Z,7.50
2018-10-06T16:20:27.709Z,7.33
2018-10-06T16:22:56.678Z,8.05
2018-10-06T16:25:27.355Z,8.43
2018-10-06T16:27:56.369Z,9.38
2018-10-06T16:30:25.340Z,8.13
2018-10-06T16:32:54.363Z,8.40
2018-10-06T16:35:23.335Z,8.18
2018-10-06T16:37:52.225Z,9.08
2018-10-06T16:40:21.209Z,8.03
2018-10-06T16:42:50.173Z,7.75
2018-10-06T16:45:19.116Z,9.50
2018-10-06T16:47:48.142Z,7.40
2018-10-06T16:50:17.075Z,7.87
2018-10-06T16:52:46.006Z,8.90
2018-10-06T16:55:14.984Z,8.08
2018-10-06T16:57:43.938Z,7.33
2018-10-06T17:00:13.059Z,7.35
2018-10-06T17:02:42.176Z,8.83
2018-10-06T17:05:11.156Z,8.98
2018-10-06T17:07:40.149Z,7.80
2018-10-06T17:10:09.276Z,9.45
2018-10-06T17:12:38.492Z,9.50
2018-10-06T17:15:07.982Z,9.13
2018-10-06T17:17:38.066Z,8.98
2018-10-06T17:20:07.082Z,9.60
2018-10-06T17:22:36.027Z,10.95
2018-10-06T17:25:05.077Z,8.85
2018-10-06T17:27:34.236Z,15.18
2018-10-06T17:30:03.179Z,24.30
2018-10-06T17:32:32.142Z,10.53
2018-10-06T17:35:01.145Z,8.48
2018-10-06T17:37:30.150Z,8.85
2018-10-06T17:39:59.188Z,12.10
2018-10-06T17:42:28.134Z,10.90
2018-10-06T17:44:57.116Z,11.75
2018-10-06T17:47:26.075Z,10.45
2018-10-06T17:49:55.104Z,10.15
2018-10-06T17:52:24.559Z,11.05
2018-10-06T17:54:53.519Z,9.98
2018-10-06T17:57:22.580Z,9.43
2018-10-06T17:59:51.673Z,8.90
2018-10-06T18:02:20.621Z,9.68
2018-10-06T18:04:49.696Z,9.20
2018-10-06T18:07:18.829Z,9.28
2018-10-06T18:09:47.797Z,9.70
2018-10-06T18:12:16.785Z,8.60
2018-10-06T18:14:45.741Z,9.30
2018-10-06T18:17:14.693Z,8.98
2018-10-06T18:19:43.671Z,8.20
2018-10-06T18:22:12.652Z,9.18
2018-10-06T18:24:41.595Z,8.53
2018-10-06T18:27:10.608Z,9.48
2018-10-06T18:29:39.779Z,8.73
2018-10-06T18:32:08.926Z,9.28
2018-10-06T18:34:37.898Z,10.50
2018-10-06T18:37:06.969Z,9.25
2018-10-06T18:39:35.993Z,9.88
2018-10-06T18:42:05.002Z,10.53
2018-10-06T18:44:33.953Z,10.32
2018-10-06T18:47:02.934Z,9.45
2018-10-06T18:49:31.925Z,13.65
2018-10-06T18:52:00.958Z,11.65
2018-10-06T18:54:29.946Z,10.10
2018-10-06T18:56:58.925Z,10.08
2018-10-06T18:59:28.191Z,10.35
2018-10-06T19:01:57.521Z,11.63
2018-10-06T19:04:26.797Z,10.90
2018-10-06T19:06:56.148Z,11.60
2018-10-06T19:09:25.409Z,11.20
2018-10-06T19:11:54.699Z,11.55
2018-10-06T19:14:23.944Z,11.80
2018-10-06T19:16:53.267Z,13.05
2018-10-06T19:19:22.522Z,11.35
2018-10-06T19:21:51.763Z,12.85
2018-10-06T19:24:21.158Z,11.70
2018-10-06T19:26:50.620Z,11.90
2018-10-06T19:29:19.976Z,11.85
2018-10-06T19:31:49.309Z,12.40
2018-10-06T19:34:18.576Z,12.23
2018-10-06T19:36:47.916Z,10.63
2018-10-06T19:39:17.242Z,11.43
2018-10-06T19:41:46.587Z,12.53
2018-10-06T19:44:15.926Z,10.18
2018-10-06T19:46:45.162Z,9.58
2018-10-06T19:49:14.440Z,9.93
2018-10-06T19:51:43.801Z,8.85
2018-10-06T19:54:13.339Z,10.43
2018-10-06T19:56:42.567Z,9.90
2018-10-06T19:59:11.790Z,9.38
2018-10-06T20:01:41.079Z,8.15
2018-10-06T20:04:10.408Z,8.00
2018-10-06T20:06:39.944Z,7.78
2018-10-06T20:09:10.541Z,6.80
2018-10-06T20:11:40.104Z,7.45
2018-10-06T20:14:09.363Z,6.50
2018-10-06T20:16:38.714Z,6.47
2018-10-06T20:19:08.033Z,6.15
2018-10-06T20:21:37.519Z,6.00
2018-10-06T20:24:13.141Z,5.65
2018-10-06T20:26:42.161Z,8.58
2018-10-06T20:29:11.227Z,6.80
2018-10-06T20:31:40.205Z,5.92
2018-10-06T20:34:09.221Z,5.62
2018-10-06T20:36:38.203Z,6.37
2018-10-06T20:39:07.595Z,5.65
2018-10-06T20:41:36.504Z,5.70
2018-10-06T20:44:05.818Z,5.53
2018-10-06T20:46:34.921Z,6.20
2018-10-06T20:49:03.869Z,6.05
2018-10-06T20:51:32.842Z,6.12
2018-10-06T20:54:01.797Z,5.85
2018-10-06T20:56:30.757Z,6.17
2018-10-06T20:58:59.788Z,5.72
2018-10-06T21:01:28.711Z,5.85
2018-10-06T21:03:57.653Z,6.62
2018-10-06T21:06:26.599Z,6.05
2018-10-06T21:08:55.520Z,5.80
2018-10-06T21:11:24.544Z,6.75
2018-10-06T21:13:53.676Z,6.05
2018-10-06T21:16:22.664Z,6.10
2018-10-06T21:18:51.606Z,6.67
2018-10-06T21:21:20.652Z,5.72
2018-10-06T21:23:49.576Z,6.10
2018-10-06T21:26:18.543Z,6.37
2018-10-06T21:28:47.566Z,6.15
2018-10-06T21:31:16.676Z,6.60
2018-10-06T21:33:45.777Z,6.17
2018-10-06T21:36:14.748Z,6.60
2018-10-06T21:38:43.759Z,6.25
2018-10-06T21:41:12.874Z,6.95
2018-10-06T21:43:41.993Z,7.05
2018-10-06T21:46:10.947Z,7.85
2018-10-06T21:48:39.922Z,6.87
2018-10-06T21:51:08.863Z,6.80
2018-10-06T21:53:37.838Z,7.65
2018-10-06T21:56:06.801Z,7.05
2018-10-06T21:58:35.803Z,6.80
2018-10-06T22:01:14.591Z,6.78
2018-10-06T22:03:43.531Z,6.80
2018-10-06T22:06:12.485Z,7.25
2018-10-06T22:08:41.545Z,7.17
2018-10-06T22:11:10.645Z,6.60
2018-10-06T22:13:39.645Z,6.47
2018-10-06T22:16:08.659Z,8.10
2018-10-06T22:18:37.571Z,6.72
2018-10-06T22:21:06.575Z,7.50
2018-10-06T22:23:35.538Z,7.50
2018-10-06T22:26:04.617Z,7.37
2018-10-06T22:28:33.586Z,7.00
2018-10-06T22:31:02.564Z,7.28
2018-10-06T22:33:31.500Z,7.45
2018-10-06T22:36:00.426Z,7.70
2018-10-06T22:38:29.368Z,7.90
2018-10-06T22:40:58.328Z,8.08
2018-10-06T22:43:27.326Z,7.58
2018-10-06T22:45:56.455Z,8.13
2018-10-06T22:48:25.486Z,7.95
2018-10-06T22:50:54.462Z,7.50
2018-10-06T22:53:23.373Z,7.47
2018-10-06T22:55:52.314Z,7.60
2018-10-06T22:58:21.259Z,7.85
2018-10-06T23:00:50.566Z,8.35
2018-10-06T23:03:19.591Z,7.03
2018-10-06T23:05:48.682Z,7.95
2018-10-06T23:08:17.605Z,7.60
2018-10-06T23:10:46.577Z,8.00
2018-10-06T23:13:15.482Z,7.80
2018-10-06T23:15:44.418Z,7.08
2018-10-06T23:18:13.382Z,8.40
2018-10-06T23:20:42.359Z,7.28
2018-10-06T23:23:11.299Z,7.33
2018-10-06T23:25:40.262Z,7.65
2018-10-06T23:28:09.217Z,7.67
2018-10-06T23:30:38.190Z,6.85
2018-10-06T23:33:07.167Z,7.75
2018-10-06T23:35:36.085Z,7.92
2018-10-06T23:38:05.025Z,7.22
2018-10-06T23:40:33.948Z,7.37
2018-10-06T23:43:02.891Z,7.65
2018-10-06T23:45:31.930Z,7.83
2018-10-06T23:48:00.859Z,7.62
2018-10-06T23:50:29.859Z,8.15
2018-10-06T23:52:58.812Z,8.35
2018-10-06T23:55:27.793Z,8.45
2018-10-06T23:57:56.753Z,8.20
